GIA176 WIII-WIBB
Flight info
| Callsign | GIA176 |
|---|---|
| Flight time | N/A |
| Altitude | 36000 |
| Route | GOMEL1E GOMEL T10 OVSET OVSET1H |
| Aircraft | B738/M-L/C |
Departure
| Time | 2026-04-30 22:49 |
|---|---|
| Airport | Soekarno-Hatta International Airport (WIII) |
Arrival
| Time | N/A |
|---|---|
| Airport | Sultan Syarif Kasim II International Airport / Roesmin Nurjadin AFB (WIBB) |
| Time | Latitude | Longitude | Altitude | Speed | Heading |
|---|---|---|---|---|---|
| 2026-04-30 22:30 | -6.12867 | 106.66023 | 35 ft | 0 kts | 253° |
| 2026-04-30 22:37 | -6.12866 | 106.66027 | 35 ft | 2 kts | 253° |
| 2026-04-30 22:37 | -6.12862 | 106.66041 | 35 ft | 2 kts | 253° |
| 2026-04-30 22:37 | -6.12853 | 106.66063 | 34 ft | 2 kts | 233° |
| 2026-04-30 22:38 | -6.12830 | 106.66082 | 34 ft | 2 kts | 205° |
| 2026-04-30 22:38 | -6.12802 | 106.66088 | 35 ft | 2 kts | 175° |
| 2026-04-30 22:39 | -6.12787 | 106.66086 | 34 ft | 1 kts | 161° |
| 2026-04-30 22:39 | -6.12780 | 106.66083 | 34 ft | 0 kts | 158° |
| 2026-04-30 22:41 | -6.12804 | 106.66092 | 34 ft | 5 kts | 159° |
| 2026-04-30 22:41 | -6.12896 | 106.66129 | 34 ft | 7 kts | 158° |
| 2026-04-30 22:42 | -6.13120 | 106.66218 | 34 ft | 10 kts | 158° |
| 2026-04-30 22:43 | -6.13178 | 106.66334 | 34 ft | 13 kts | 69° |
| 2026-04-30 22:43 | -6.13093 | 106.66549 | 31 ft | 19 kts | 69° |
| 2026-04-30 22:44 | -6.12992 | 106.66795 | 29 ft | 19 kts | 69° |
| 2026-04-30 22:45 | -6.12813 | 106.67249 | 30 ft | 13 kts | 68° |
| 2026-04-30 22:45 | -6.12804 | 106.67380 | 31 ft | 8 kts | 163° |
| 2026-04-30 22:46 | -6.12868 | 106.67403 | 31 ft | 0 kts | 159° |
| 2026-04-30 22:47 | -6.12995 | 106.67418 | 31 ft | 10 kts | 178° |
| 2026-04-30 22:47 | -6.13066 | 106.67350 | 30 ft | 23 kts | 248° |
| 2026-04-30 22:48 | -6.13605 | 106.65993 | 38 ft | 175 kts | 248° |
| 2026-04-30 22:49 | -6.15249 | 106.61779 | 1995 ft | 222 kts | 247° |
| 2026-04-30 22:49 | -6.17120 | 106.57119 | 4172 ft | 252 kts | 247° |
| 2026-04-30 22:50 | -6.19940 | 106.50097 | 7281 ft | 286 kts | 246° |
| 2026-04-30 22:51 | -6.21033 | 106.47034 | 8619 ft | 294 kts | 256° |
| 2026-04-30 22:51 | -6.20582 | 106.43509 | 10024 ft | 305 kts | 296° |
| 2026-04-30 22:52 | -6.19366 | 106.41715 | 10657 ft | 316 kts | 311° |
| 2026-04-30 22:52 | -6.15531 | 106.39251 | 11540 ft | 347 kts | 342° |
| 2026-04-30 22:53 | -6.10694 | 106.37900 | 12416 ft | 375 kts | 346° |
| 2026-04-30 22:53 | -6.05640 | 106.36520 | 13937 ft | 379 kts | 345° |
| 2026-04-30 22:53 | -6.03084 | 106.35785 | 14642 ft | 382 kts | 344° |
| 2026-04-30 22:54 | -5.97944 | 106.34267 | 15977 ft | 388 kts | 345° |
| 2026-04-30 22:55 | -5.90068 | 106.31920 | 17835 ft | 397 kts | 345° |
| 2026-04-30 22:55 | -5.84744 | 106.30337 | 18968 ft | 403 kts | 345° |
| 2026-04-30 22:56 | -5.79309 | 106.28723 | 20019 ft | 410 kts | 345° |
| 2026-04-30 22:56 | -5.71367 | 106.25164 | 20882 ft | 421 kts | 328° |
| 2026-04-30 22:57 | -5.66659 | 106.21629 | 20897 ft | 421 kts | 323° |
| 2026-04-30 22:57 | -5.62070 | 106.17956 | 20902 ft | 422 kts | 323° |
| 2026-04-30 22:58 | -5.57478 | 106.14261 | 20897 ft | 421 kts | 323° |
| 2026-04-30 22:59 | -5.50640 | 106.08767 | 20895 ft | 420 kts | 323° |
| 2026-04-30 22:59 | -5.43749 | 106.03245 | 20900 ft | 421 kts | 323° |